Terminal Aerodrome Forecast
Issued by NWS

Home | Current Version | Previous Version | Text Only | Print | Product List | Glossary On
Versions: 1 2 3 4 5 6 7 8 9 10 11 12 13 14 15 16
000
FTUS45 KABQ 210700 AAA
TAFSAF
TAF AMD
KSAF 210717Z 2107/2206 14003KT P6SM BKN030
     FM211000 02006KT P6SM BKN025
     FM211600 14006KT P6SM BKN035
     FM211800 20010KT P6SM VCTS SCT060CB BKN100=

USA.gov is the U.S. government's official web portal to all federal, state and local government web resources and services.